Time;durP1;ratioP1;P1;durP2;ratioP2;P2;SDS_P1;SDS_P2;PMS_P1;PMS_P2;Temp;Humidity;BMP_temperature;BMP_pressure;BME280_temperature;BME280_humidity;BME280_pressure;Samples;Min_cycle;Max_cycle;Signal;HPM_P1;HPM_P2
2022/05/27 00:01:39;;;;;;;4.20;1.70;;;;;;;;;;5091651;28;20538;-63
2022/05/27 00:04:05;;;;;;;3.72;1.40;;;;;;;;;;5093609;28;20433;-60
2022/05/27 00:06:31;;;;;;;3.85;1.45;;;;;;;;;;5093996;28;20660;-65
2022/05/27 00:08:58;;;;;;;3.72;1.52;;;;;;;;;;5086275;28;20031;-65
2022/05/27 00:11:24;;;;;;;3.67;1.70;;;;;;;;;;5082787;28;20451;-63
2022/05/27 00:13:51;;;;;;;4.68;1.80;;;;;;;;;;5086961;28;20028;-64
2022/05/27 00:16:17;;;;;;;5.68;1.90;;;;;;;;;;5086440;28;20020;-63
2022/05/27 00:18:43;;;;;;;7.13;1.90;;;;;;;;;;5093691;28;20703;-65
2022/05/27 00:21:09;;;;;;;4.38;1.80;;;;;;;;;;5083511;28;20024;-64
2022/05/27 00:23:37;;;;;;;5.82;2.00;;;;;;;;;;5085216;28;20701;-64
2022/05/27 00:26:03;;;;;;;5.90;2.22;;;;;;;;;;5086945;28;20472;-61
2022/05/27 00:28:29;;;;;;;6.28;1.90;;;;;;;;;;5086237;28;20028;-63
2022/05/27 00:30:55;;;;;;;2.85;1.70;;;;;;;;;;5091908;28;20401;-64
2022/05/27 00:33:21;;;;;;;4.57;1.60;;;;;;;;;;5079203;28;20054;-64
2022/05/27 00:35:47;;;;;;;6.32;2.10;;;;;;;;;;5084508;28;20031;-60
2022/05/27 00:38:14;;;;;;;5.00;1.75;;;;;;;;;;5082820;28;20031;-66
2022/05/27 00:40:43;;;;;;;2.67;1.70;;;;;;;;;;5087223;28;20035;-65
2022/05/27 00:43:09;;;;;;;6.72;1.90;;;;;;;;;;5084210;28;20032;-65
2022/05/27 00:45:37;;;;;;;6.10;1.85;;;;;;;;;;5091793;28;20055;-65
2022/05/27 00:48:05;;;;;;;4.88;1.90;;;;;;;;;;5091570;28;20023;-63
2022/05/27 00:50:33;;;;;;;3.83;1.92;;;;;;;;;;5085230;28;20051;-64
2022/05/27 00:53:01;;;;;;;4.55;1.75;;;;;;;;;;5082251;28;20940;-64
2022/05/27 00:55:29;;;;;;;3.90;1.67;;;;;;;;;;5091386;28;20115;-65
2022/05/27 00:58:02;;;;;;;7.57;2.25;;;;;;;;;;5085049;28;20023;-62
2022/05/27 01:00:28;;;;;;;;;;;;;;;;;;5092820;28;20028;-65
2022/05/27 01:02:55;;;;;;;5.85;1.85;;;;;;;;;;5097111;28;19943;-63
2022/05/27 01:05:22;;;;;;;5.65;1.90;;;;;;;;;;5091405;28;20020;-63
2022/05/27 01:07:48;;;;;;;5.30;2.22;;;;;;;;;;5082443;28;20028;-63
2022/05/27 01:10:16;;;;;;;4.50;1.70;;;;;;;;;;5087619;28;20027;-65
2022/05/27 01:13:00;;;;;;;4.80;2.20;;;;;;;;;;5097795;28;20032;-64
2022/05/27 01:15:49;;;;;;;7.13;2.40;;;;;;;;;;5081247;28;20024;-64
2022/05/27 01:21:46;;;;;;;4.43;2.10;;;;;;;;;;5092387;28;20038;-64
2022/05/27 01:24:30;;;;;;;5.53;2.40;;;;;;;;;;5081005;28;20046;-64
2022/05/27 01:26:56;;;;;;;6.43;2.08;;;;;;;;;;5092855;28;20022;-64
2022/05/27 01:29:31;;;;;;;4.97;2.05;;;;;;;;;;5091640;28;20102;-64
2022/05/27 01:32:01;;;;;;;4.22;1.90;;;;;;;;;;5081431;28;20031;-65
2022/05/27 01:34:30;;;;;;;8.00;2.10;;;;;;;;;;5089368;28;20028;-61
2022/05/27 01:37:02;;;;;;;4.85;2.13;;;;;;;;;;5077366;28;20420;-66
2022/05/27 01:39:47;;;;;;;6.30;2.10;;;;;;;;;;5092564;28;20917;-64
2022/05/27 01:42:23;;;;;;;3.85;2.20;;;;;;;;;;5084517;28;20136;-64
2022/05/27 01:45:01;;;;;;;6.45;2.50;;;;;;;;;;5088778;28;20035;-62
2022/05/27 01:47:42;;;;;;;4.47;2.00;;;;;;;;;;5088684;28;20643;-64
2022/05/27 01:50:11;;;;;;;5.75;2.10;;;;;;;;;;5082951;28;20031;-65
2022/05/27 01:52:44;;;;;;;6.53;2.05;;;;;;;;;;5083063;28;20028;-64
2022/05/27 01:55:10;;;;;;;5.45;1.90;;;;;;;;;;5101490;28;20495;-63
2022/05/27 01:57:39;;;;;;;6.47;2.45;;;;;;;;;;5086348;28;20039;-64
2022/05/27 02:00:10;;;;;;;5.43;1.95;;;;;;;;;;5085495;28;20020;-64
2022/05/27 02:02:38;;;;;;;5.00;2.20;;;;;;;;;;5087112;28;20036;-63
2022/05/27 02:05:09;;;;;;;4.95;2.20;;;;;;;;;;5083033;28;20033;-64
2022/05/27 02:07:38;;;;;;;5.78;2.30;;;;;;;;;;5080376;28;20103;-64
2022/05/27 02:10:08;;;;;;;5.60;2.42;;;;;;;;;;5085068;28;20077;-62
2022/05/27 02:12:37;;;;;;;8.05;2.58;;;;;;;;;;5090819;28;20413;-64
2022/05/27 02:15:08;;;;;;;8.35;2.10;;;;;;;;;;5083463;28;20028;-60
2022/05/27 02:17:37;;;;;;;7.60;2.85;;;;;;;;;;5080076;28;20036;-65
2022/05/27 02:20:03;;;;;;;9.73;2.70;;;;;;;;;;5086396;28;20024;-64
2022/05/27 02:22:31;;;;;;;9.30;2.38;;;;;;;;;;5090321;28;20539;-62
2022/05/27 02:25:02;;;;;;;8.00;2.67;;;;;;;;;;5087626;28;20024;-60
2022/05/27 02:27:34;;;;;;;8.07;2.25;;;;;;;;;;5087198;28;20036;-65
2022/05/27 02:30:01;;;;;;;6.82;2.80;;;;;;;;;;5082262;28;20471;-60
2022/05/27 02:32:38;;;;;;;8.02;2.97;;;;;;;;;;5082085;28;20029;-61
2022/05/27 02:35:09;;;;;;;4.95;2.65;;;;;;;;;;5083793;28;20488;-65
2022/05/27 02:37:46;;;;;;;6.80;2.78;;;;;;;;;;5087647;28;20023;-62
2022/05/27 02:40:20;;;;;;;7.63;2.83;;;;;;;;;;5093121;28;20035;-64
2022/05/27 02:43:04;;;;;;;7.95;3.10;;;;;;;;;;5092156;28;20954;-60
2022/05/27 02:45:39;;;;;;;6.60;2.90;;;;;;;;;;5086672;28;20153;-60
2022/05/27 02:48:24;;;;;;;10.27;3.47;;;;;;;;;;5091896;28;20154;-61
2022/05/27 02:50:59;;;;;;;7.38;3.17;;;;;;;;;;5095688;28;20030;-62
2022/05/27 02:53:48;;;;;;;7.93;3.40;;;;;;;;;;5088107;28;20028;-62
2022/05/27 02:56:16;;;;;;;9.05;3.80;;;;;;;;;;5090740;28;20071;-60
2022/05/27 02:58:42;;;;;;;5.95;3.30;;;;;;;;;;5092307;28;20089;-59
2022/05/27 03:01:09;;;;;;;10.00;3.53;;;;;;;;;;5082382;28;20514;-61
2022/05/27 03:03:35;;;;;;;6.65;3.83;;;;;;;;;;5089344;28;20127;-60
2022/05/27 03:06:18;;;;;;;8.25;3.85;;;;;;;;;;5090777;28;20428;-59
2022/05/27 03:09:02;;;;;;;7.45;3.92;;;;;;;;;;5087460;28;20085;-64
2022/05/27 03:11:42;;;;;;;11.68;4.60;;;;;;;;;;5090983;28;20023;-64
2022/05/27 03:14:23;;;;;;;13.23;5.30;;;;;;;;;;5097655;28;20395;-62
2022/05/27 03:17:08;;;;;;;11.57;5.75;;;;;;;;;;5085267;28;20032;-64
2022/05/27 03:19:53;;;;;;;8.18;5.07;;;;;;;;;;5094944;28;20051;-63
2022/05/27 03:22:27;;;;;;;10.15;4.90;;;;;;;;;;5092119;28;20395;-64
2022/05/27 03:24:58;;;;;;;9.98;5.35;;;;;;;;;;5083002;28;20081;-65
2022/05/27 03:27:33;;;;;;;10.00;5.25;;;;;;;;;;5088189;28;20064;-63
2022/05/27 03:30:00;;;;;;;11.00;5.35;;;;;;;;;;5089720;28;20058;-61
2022/05/27 03:32:26;;;;;;;9.77;5.68;;;;;;;;;;5080206;28;20036;-61
2022/05/27 03:34:56;;;;;;;11.30;5.95;;;;;;;;;;5081639;28;20066;-64
2022/05/27 03:37:26;;;;;;;9.70;5.30;;;;;;;;;;5095354;27;20024;-64
2022/05/27 03:39:59;;;;;;;11.05;5.32;;;;;;;;;;5090283;28;20623;-63
2022/05/27 03:42:25;;;;;;;8.80;5.60;;;;;;;;;;5089668;28;20551;-64
2022/05/27 03:44:56;;;;;;;7.63;3.80;;;;;;;;;;5090966;28;20662;-63
2022/05/27 03:47:22;;;;;;;5.80;3.17;;;;;;;;;;5093944;28;20070;-63
2022/05/27 03:49:48;;;;;;;8.95;2.80;;;;;;;;;;5095636;28;20056;-60
2022/05/27 03:52:37;;;;;;;4.93;3.03;;;;;;;;;;5090628;28;20057;-63
2022/05/27 03:55:04;;;;;;;4.57;2.50;;;;;;;;;;5086208;28;20089;-63
2022/05/27 03:57:30;;;;;;;6.57;3.15;;;;;;;;;;5087156;28;20138;-62
2022/05/27 03:59:56;;;;;;;5.38;2.80;;;;;;;;;;5087529;28;20135;-60
2022/05/27 04:02:22;;;;;;;4.88;3.40;;;;;;;;;;5088624;28;20024;-61
2022/05/27 04:04:47;;;;;;;6.35;3.20;;;;;;;;;;5088298;28;20055;-60
2022/05/27 04:07:13;;;;;;;5.40;2.90;;;;;;;;;;5087406;28;20017;-63
2022/05/27 04:09:39;;;;;;;5.22;2.92;;;;;;;;;;5089051;28;20028;-63
2022/05/27 04:12:06;;;;;;;5.22;3.28;;;;;;;;;;5090927;28;20091;-64
2022/05/27 04:14:32;;;;;;;6.55;3.53;;;;;;;;;;5084407;27;20047;-63
2022/05/27 04:19:42;;;;;;;9.00;3.72;;;;;;;;;;5086808;28;20114;-60
2022/05/27 04:22:08;;;;;;;7.32;4.03;;;;;;;;;;5081389;28;20036;-63
2022/05/27 04:24:34;;;;;;;7.13;3.20;;;;;;;;;;5090257;28;20051;-62
2022/05/27 04:27:07;;;;;;;6.15;3.47;;;;;;;;;;5090677;28;20057;-63
2022/05/27 04:29:33;;;;;;;7.22;3.35;;;;;;;;;;5091795;28;20027;-63
2022/05/27 04:31:59;;;;;;;6.13;3.33;;;;;;;;;;5084944;28;20023;-63
2022/05/27 04:34:25;;;;;;;5.75;2.95;;;;;;;;;;5086588;28;20046;-62
2022/05/27 04:36:51;;;;;;;7.35;3.40;;;;;;;;;;5077138;28;20036;-63
2022/05/27 04:39:17;;;;;;;5.95;3.22;;;;;;;;;;5088150;28;20024;-63
2022/05/27 04:41:43;;;;;;;6.15;2.92;;;;;;;;;;5082542;28;20024;-62
2022/05/27 04:44:08;;;;;;;6.28;3.65;;;;;;;;;;5089104;28;20058;-61
2022/05/27 04:46:34;;;;;;;6.72;3.65;;;;;;;;;;5084945;28;20384;-63
2022/05/27 04:49:00;;;;;;;8.38;4.10;;;;;;;;;;5082135;28;20391;-60
2022/05/27 04:51:26;;;;;;;5.85;3.47;;;;;;;;;;5092410;28;20443;-59
2022/05/27 04:53:52;;;;;;;6.15;3.10;;;;;;;;;;5093180;28;20024;-58
2022/05/27 04:56:19;;;;;;;7.20;3.30;;;;;;;;;;5093634;28;20028;-60
2022/05/27 04:58:45;;;;;;;4.63;3.22;;;;;;;;;;5093188;28;20028;-60
2022/05/27 05:01:11;;;;;;;17.08;3.85;;;;;;;;;;5082397;28;20036;-60
2022/05/27 05:03:37;;;;;;;6.57;3.53;;;;;;;;;;5082944;28;20065;-62
2022/05/27 05:06:03;;;;;;;5.30;3.50;;;;;;;;;;5084437;28;20082;-60
2022/05/27 05:08:33;;;;;;;64.45;37.50;;;;;;;;;;5082768;28;20032;-57
2022/05/27 05:11:01;;;;;;;7.90;4.63;;;;;;;;;;5088187;28;20040;-60
2022/05/27 05:13:27;;;;;;;6.70;3.65;;;;;;;;;;5085652;28;20526;-60
2022/05/27 05:15:54;;;;;;;5.35;3.60;;;;;;;;;;5084558;28;20069;-58
2022/05/27 05:18:19;;;;;;;5.50;3.17;;;;;;;;;;5097809;28;20109;-60
2022/05/27 05:20:45;;;;;;;6.22;3.08;;;;;;;;;;5085769;28;20020;-61
2022/05/27 05:23:11;;;;;;;7.22;3.30;;;;;;;;;;5085223;28;20036;-61
2022/05/27 05:25:37;;;;;;;9.80;3.47;;;;;;;;;;5088949;28;20024;-61
2022/05/27 05:28:04;;;;;;;7.18;3.47;;;;;;;;;;5082994;28;20364;-60
2022/05/27 05:30:29;;;;;;;8.68;3.60;;;;;;;;;;5085772;28;20103;-62
2022/05/27 05:32:55;;;;;;;5.95;3.33;;;;;;;;;;5079435;28;20475;-61
2022/05/27 05:35:22;;;;;;;8.05;3.10;;;;;;;;;;5080332;28;20031;-61
2022/05/27 05:37:48;;;;;;;5.78;2.63;;;;;;;;;;5077526;28;20037;-60
2022/05/27 05:40:15;;;;;;;6.57;2.83;;;;;;;;;;5084600;28;20104;-61
2022/05/27 05:42:41;;;;;;;4.13;2.60;;;;;;;;;;5090057;28;20098;-62
2022/05/27 05:45:08;;;;;;;6.30;2.70;;;;;;;;;;5087679;28;20031;-59
2022/05/27 05:47:34;;;;;;;5.75;2.53;;;;;;;;;;5088141;28;20068;-62
2022/05/27 05:50:00;;;;;;;5.78;2.60;;;;;;;;;;5083897;28;20620;-62
2022/05/27 05:52:26;;;;;;;6.57;2.78;;;;;;;;;;5084284;28;20027;-60
2022/05/27 05:54:52;;;;;;;6.47;2.53;;;;;;;;;;5087023;28;20032;-60
2022/05/27 05:57:18;;;;;;;5.80;2.20;;;;;;;;;;5085667;28;20490;-58
2022/05/27 05:59:44;;;;;;;7.75;3.00;;;;;;;;;;5089017;28;20036;-57
2022/05/27 06:02:10;;;;;;;6.15;2.95;;;;;;;;;;5085831;28;20062;-57
2022/05/27 06:04:36;;;;;;;8.82;3.40;;;;;;;;;;5086147;28;20108;-59
2022/05/27 06:07:03;;;;;;;5.88;2.78;;;;;;;;;;5083573;28;20015;-59
2022/05/27 06:09:29;;;;;;;7.05;3.28;;;;;;;;;;5083319;28;20458;-61
2022/05/27 06:11:56;;;;;;;7.53;3.13;;;;;;;;;;5092648;28;20103;-59
2022/05/27 06:14:22;;;;;;;5.03;2.70;;;;;;;;;;5099112;28;20051;-59
2022/05/27 06:16:49;;;;;;;8.10;3.20;;;;;;;;;;5084392;28;20056;-60
2022/05/27 06:19:15;;;;;;;7.35;2.80;;;;;;;;;;5090762;28;20410;-59
2022/05/27 06:21:41;;;;;;;6.00;3.13;;;;;;;;;;5091715;28;20027;-58
2022/05/27 06:24:07;;;;;;;7.72;3.13;;;;;;;;;;5094793;28;20038;-59
2022/05/27 06:26:33;;;;;;;6.78;3.00;;;;;;;;;;5082663;28;20024;-61
2022/05/27 06:34:29;;;;;;;10.10;4.53;;;;;;;;;;5081469;28;20062;-60
2022/05/27 06:37:06;;;;;;;6.82;3.63;;;;;;;;;;5084048;28;20023;-61
2022/05/27 06:39:34;;;;;;;4.78;3.20;;;;;;;;;;5088273;28;20055;-60
2022/05/27 06:42:00;;;;;;;9.45;3.42;;;;;;;;;;5094685;28;20031;-60
2022/05/27 06:44:26;;;;;;;6.22;3.15;;;;;;;;;;5090039;27;20951;-59
2022/05/27 06:46:52;;;;;;;4.68;3.25;;;;;;;;;;5079720;28;20593;-60
2022/05/27 06:49:19;;;;;;;6.55;3.40;;;;;;;;;;5092872;28;20026;-58
2022/05/27 06:51:46;;;;;;;8.88;3.60;;;;;;;;;;5089594;28;20048;-61
2022/05/27 06:54:13;;;;;;;8.13;3.80;;;;;;;;;;5096572;28;20076;-60
2022/05/27 06:56:39;;;;;;;6.90;3.53;;;;;;;;;;5091545;28;20756;-59
2022/05/27 06:59:07;;;;;;;13.43;3.95;;;;;;;;;;5091171;28;20111;-61
2022/05/27 07:01:33;;;;;;;9.52;3.40;;;;;;;;;;5092132;28;20623;-58
2022/05/27 07:03:59;;;;;;;11.05;3.70;;;;;;;;;;5098029;28;20027;-61
2022/05/27 07:06:27;;;;;;;8.60;3.83;;;;;;;;;;5088462;28;20013;-58
2022/05/27 07:08:53;;;;;;;7.90;4.03;;;;;;;;;;5092082;28;20674;-60
2022/05/27 07:11:19;;;;;;;9.45;4.10;;;;;;;;;;5092540;28;20026;-59
2022/05/27 07:13:45;;;;;;;9.82;4.38;;;;;;;;;;5087607;28;20568;-59
2022/05/27 07:16:11;;;;;;;11.43;4.97;;;;;;;;;;5087339;28;20038;-61
2022/05/27 07:18:37;;;;;;;9.95;4.70;;;;;;;;;;5090517;28;20476;-61
2022/05/27 07:21:04;;;;;;;10.07;4.95;;;;;;;;;;5080766;28;20023;-61
2022/05/27 07:23:31;;;;;;;12.77;5.95;;;;;;;;;;5085317;28;20033;-60
2022/05/27 07:25:57;;;;;;;11.73;6.28;;;;;;;;;;5081824;28;20027;-59
2022/05/27 07:28:23;;;;;;;11.60;5.95;;;;;;;;;;5089037;28;20047;-61
2022/05/27 07:30:49;;;;;;;12.20;6.57;;;;;;;;;;5083196;28;20059;-61
2022/05/27 07:33:15;;;;;;;10.88;6.10;;;;;;;;;;5084647;28;20095;-58
2022/05/27 07:35:41;;;;;;;12.50;6.22;;;;;;;;;;5097365;28;20522;-61
2022/05/27 07:38:07;;;;;;;11.95;6.18;;;;;;;;;;5090661;28;21659;-58
2022/05/27 07:40:33;;;;;;;11.13;6.97;;;;;;;;;;5090358;28;20028;-61
2022/05/27 07:42:59;;;;;;;13.63;6.63;;;;;;;;;;5087317;28;20032;-61
2022/05/27 07:45:29;;;;;;;15.45;6.47;;;;;;;;;;5083698;28;20113;-59
2022/05/27 07:47:56;;;;;;;13.73;6.97;;;;;;;;;;5080130;28;20629;-61
2022/05/27 07:50:22;;;;;;;14.13;6.38;;;;;;;;;;5088904;28;20040;-59
2022/05/27 07:52:48;;;;;;;10.73;6.20;;;;;;;;;;5092797;28;20024;-61
2022/05/27 07:55:14;;;;;;;13.77;6.93;;;;;;;;;;5084978;28;20029;-60
2022/05/27 07:57:41;;;;;;;10.50;6.30;;;;;;;;;;5084368;28;20123;-61
2022/05/27 08:00:09;;;;;;;14.98;7.03;;;;;;;;;;5092883;28;20050;-61
2022/05/27 08:02:35;;;;;;;16.75;5.97;;;;;;;;;;5085001;28;20035;-61
2022/05/27 08:05:01;;;;;;;12.48;4.82;;;;;;;;;;5093621;28;20664;-60
2022/05/27 08:07:27;;;;;;;12.25;5.32;;;;;;;;;;5087474;28;20036;-61
2022/05/27 08:09:53;;;;;;;11.90;4.68;;;;;;;;;;5094559;28;20034;-61
2022/05/27 08:12:19;;;;;;;13.07;4.53;;;;;;;;;;5090799;28;20072;-61
2022/05/27 08:14:45;;;;;;;14.48;5.30;;;;;;;;;;5090018;28;20115;-61
2022/05/27 08:17:11;;;;;;;9.98;4.65;;;;;;;;;;5091192;28;20046;-61
2022/05/27 08:19:37;;;;;;;11.23;4.75;;;;;;;;;;5090194;28;20020;-61
2022/05/27 08:22:05;;;;;;;13.82;4.55;;;;;;;;;;5089195;28;20032;-61
2022/05/27 08:24:31;;;;;;;12.63;4.40;;;;;;;;;;5079001;28;20036;-60
2022/05/27 08:26:57;;;;;;;7.90;4.38;;;;;;;;;;5091355;28;20023;-61
2022/05/27 08:29:23;;;;;;;11.82;4.63;;;;;;;;;;5092794;28;20581;-61
2022/05/27 08:31:49;;;;;;;9.82;4.45;;;;;;;;;;5075791;28;20034;-61
2022/05/27 08:39:46;;;;;;;12.65;3.50;;;;;;;;;;5080209;28;20113;-60
2022/05/27 08:42:30;;;;;;;14.55;3.10;;;;;;;;;;5073823;28;20594;-61
2022/05/27 08:44:56;;;;;;;7.75;2.85;;;;;;;;;;5080395;28;20028;-60
2022/05/27 08:47:29;;;;;;;10.73;3.42;;;;;;;;;;5089368;28;20049;-59
2022/05/27 08:50:18;;;;;;;13.07;3.92;;;;;;;;;;5085774;28;20524;-61
2022/05/27 08:52:49;;;;;;;14.60;3.08;;;;;;;;;;5073889;28;20077;-60
2022/05/27 09:01:06;;;;;;;16.15;3.50;;;;;;;;;;5084337;28;20024;-61
2022/05/27 09:03:39;;;;;;;7.63;2.90;;;;;;;;;;5089235;28;20424;-61
2022/05/27 09:06:05;;;;;;;;;;;;;;;;;;5086599;28;20108;-61
2022/05/27 09:08:31;;;;;;;6.28;2.50;;;;;;;;;;5091168;28;20003;-62
2022/05/27 09:11:16;;;;;;;12.80;2.70;;;;;;;;;;5091611;28;20023;-61
2022/05/27 09:13:45;;;;;;;12.70;3.08;;;;;;;;;;5091265;28;20047;-63
2022/05/27 09:16:17;;;;;;;11.30;3.22;;;;;;;;;;5080029;28;20062;-63
2022/05/27 09:19:00;;;;;;;12.30;2.42;;;;;;;;;;5081471;28;20120;-63
2022/05/27 09:21:45;;;;;;;14.93;3.20;;;;;;;;;;5090791;28;20107;-64
2022/05/27 09:24:11;;;;;;;9.05;2.47;;;;;;;;;;5088307;28;20020;-64
2022/05/27 09:26:42;;;;;;;13.30;3.53;;;;;;;;;;5093603;28;20024;-63
2022/05/27 09:29:27;;;;;;;8.45;2.83;;;;;;;;;;5094323;28;20439;-62
2022/05/27 09:32:06;;;;;;;11.10;3.25;;;;;;;;;;5089227;28;20036;-64
2022/05/27 09:34:33;;;;;;;11.52;3.10;;;;;;;;;;5080026;28;20039;-64
2022/05/27 09:37:00;;;;;;;10.65;2.88;;;;;;;;;;5082219;28;20081;-64
2022/05/27 09:39:27;;;;;;;11.20;2.80;;;;;;;;;;5082261;28;20078;-61
2022/05/27 09:42:13;;;;;;;9.55;2.88;;;;;;;;;;5084543;28;20046;-63
2022/05/27 09:44:49;;;;;;;13.60;3.03;;;;;;;;;;5089222;28;20033;-63
2022/05/27 09:47:16;;;;;;;13.05;2.85;;;;;;;;;;5087087;28;20463;-63
2022/05/27 09:49:43;;;;;;;10.90;2.67;;;;;;;;;;5087841;28;20533;-63
2022/05/27 09:52:08;;;;;;;12.27;2.72;;;;;;;;;;5097810;28;20250;-63
2022/05/27 09:54:55;;;;;;;12.55;3.30;;;;;;;;;;5091562;28;20035;-64
2022/05/27 09:57:25;;;;;;;10.25;2.90;;;;;;;;;;5092311;28;20073;-64
2022/05/27 09:59:54;;;;;;;9.95;2.92;;;;;;;;;;5099909;28;20040;-64
2022/05/27 10:02:30;;;;;;;10.98;2.85;;;;;;;;;;5091512;28;20028;-64
2022/05/27 10:05:00;;;;;;;13.48;3.15;;;;;;;;;;5082315;28;20386;-64
2022/05/27 10:07:28;;;;;;;12.80;2.95;;;;;;;;;;5098552;28;20024;-62
2022/05/27 10:09:55;;;;;;;8.82;3.03;;;;;;;;;;5092064;28;20020;-64
2022/05/27 10:12:28;;;;;;;9.18;3.55;;;;;;;;;;5087076;28;20024;-64
2022/05/27 10:14:55;;;;;;;9.13;3.03;;;;;;;;;;5092003;28;20138;-62
2022/05/27 10:17:36;;;;;;;9.85;2.60;;;;;;;;;;5095321;28;20364;-64
2022/05/27 10:20:36;;;;;;;14.60;3.22;;;;;;;;;;5086368;28;20052;-64
2022/05/27 10:23:07;;;;;;;11.02;3.30;;;;;;;;;;5070709;28;20113;-64
2022/05/27 10:25:37;;;;;;;11.35;2.92;;;;;;;;;;5087683;28;20035;-63
2022/05/27 10:28:04;;;;;;;11.50;3.20;;;;;;;;;;5085799;28;20107;-64
2022/05/27 10:30:32;;;;;;;9.82;2.83;;;;;;;;;;5093743;27;20036;-65
2022/05/27 10:33:17;;;;;;;8.32;2.88;;;;;;;;;;5089237;28;20193;-64
2022/05/27 10:35:44;;;;;;;12.35;2.95;;;;;;;;;;5081684;28;20116;-64
2022/05/27 10:38:10;;;;;;;9.05;2.97;;;;;;;;;;5086786;28;20072;-62
2022/05/27 10:40:53;;;;;;;13.82;3.33;;;;;;;;;;5095647;28;20329;-64
2022/05/27 10:43:26;;;;;;;15.00;3.00;;;;;;;;;;5086541;28;20104;-62
2022/05/27 10:45:55;;;;;;;13.10;3.05;;;;;;;;;;5096736;28;20024;-64
2022/05/27 10:48:23;;;;;;;12.02;2.92;;;;;;;;;;5097804;28;20424;-62
2022/05/27 10:51:10;;;;;;;11.75;3.22;;;;;;;;;;5079060;28;20035;-64
2022/05/27 10:53:56;;;;;;;6.70;2.80;;;;;;;;;;5095934;28;20031;-64
2022/05/27 10:56:39;;;;;;;11.18;2.80;;;;;;;;;;5089161;28;20448;-62
2022/05/27 11:02:08;;;;;;;7.22;2.40;;;;;;;;;;5088465;28;20173;-62
2022/05/27 11:04:42;;;;;;;7.93;2.75;;;;;;;;;;5084736;28;20088;-63
2022/05/27 11:07:08;;;;;;;;;;;;;;;;;;5085995;28;20043;-63
2022/05/27 11:09:38;;;;;;;12.35;2.70;;;;;;;;;;5088399;28;19939;-62
2022/05/27 11:12:22;;;;;;;9.05;2.92;;;;;;;;;;5090050;28;20077;-61
2022/05/27 11:15:12;;;;;;;9.07;2.53;;;;;;;;;;5085777;28;20367;-62
2022/05/27 11:17:47;;;;;;;13.15;3.33;;;;;;;;;;5088805;28;20088;-62
2022/05/27 11:20:13;;;;;;;13.60;2.70;;;;;;;;;;5091919;28;20610;-62
2022/05/27 11:22:48;;;;;;;16.60;8.93;;;;;;;;;;5088902;28;20088;-65
2022/05/27 11:25:33;;;;;;;12.10;3.20;;;;;;;;;;5085896;28;20535;-62
2022/05/27 11:28:17;;;;;;;12.60;3.13;;;;;;;;;;5091402;28;20285;-64
2022/05/27 11:30:49;;;;;;;13.18;3.25;;;;;;;;;;5079911;28;20051;-65
2022/05/27 11:33:32;;;;;;;12.00;2.92;;;;;;;;;;5086393;28;20437;-65
2022/05/27 11:36:12;;;;;;;12.07;2.80;;;;;;;;;;5090065;28;20543;-64
2022/05/27 11:38:59;;;;;;;12.95;3.15;;;;;;;;;;5089752;28;20092;-65
2022/05/27 11:41:29;;;;;;;12.98;2.40;;;;;;;;;;5091048;28;20034;-64
2022/05/27 11:44:13;;;;;;;11.88;2.92;;;;;;;;;;5095950;28;20114;-64
2022/05/27 11:46:58;;;;;;;9.52;3.15;;;;;;;;;;5089309;28;20083;-63
2022/05/27 11:49:24;;;;;;;8.55;2.80;;;;;;;;;;5081522;28;20085;-62
2022/05/27 11:52:05;;;;;;;12.63;2.80;;;;;;;;;;5088298;28;20486;-61
2022/05/27 11:54:50;;;;;;;7.10;2.15;;;;;;;;;;5087597;28;20027;-63
2022/05/27 11:57:26;;;;;;;10.80;2.45;;;;;;;;;;5093030;28;20494;-61
2022/05/27 12:00:04;;;;;;;10.88;2.10;;;;;;;;;;5095414;28;20491;-62
2022/05/27 12:02:38;;;;;;;10.73;2.53;;;;;;;;;;5084962;28;20127;-60
2022/05/27 12:05:17;;;;;;;9.60;2.22;;;;;;;;;;5089602;28;20023;-61
2022/05/27 12:08:09;;;;;;;8.48;2.17;;;;;;;;;;5097332;28;20023;-62
2022/05/27 12:10:40;;;;;;;7.90;2.38;;;;;;;;;;5080396;28;20097;-64
2022/05/27 12:13:19;;;;;;;5.93;1.83;;;;;;;;;;5087496;28;20035;-61
2022/05/27 12:15:54;;;;;;;6.63;2.22;;;;;;;;;;5089706;28;20448;-63
2022/05/27 12:18:26;;;;;;;11.32;2.50;;;;;;;;;;5081916;28;20089;-61
2022/05/27 12:20:52;;;;;;;8.68;2.25;;;;;;;;;;5082983;28;20028;-62
2022/05/27 12:23:19;;;;;;;7.38;2.42;;;;;;;;;;5085761;28;20110;-61
2022/05/27 12:25:48;;;;;;;8.43;2.35;;;;;;;;;;5089194;28;20503;-61
2022/05/27 12:28:16;;;;;;;7.70;2.30;;;;;;;;;;5092106;28;20024;-62
2022/05/27 12:30:43;;;;;;;8.95;2.65;;;;;;;;;;5085442;28;20067;-62
2022/05/27 12:33:20;;;;;;;7.05;2.38;;;;;;;;;;5081877;28;20028;-62
2022/05/27 12:35:52;;;;;;;9.20;2.85;;;;;;;;;;5081582;28;20029;-62
2022/05/27 12:38:17;;;;;;;10.30;2.67;;;;;;;;;;5081619;28;20612;-62
2022/05/27 12:40:49;;;;;;;10.65;2.53;;;;;;;;;;5092603;28;20078;-63
2022/05/27 12:43:18;;;;;;;7.22;2.20;;;;;;;;;;5089712;28;20027;-61
2022/05/27 12:46:14;;;;;;;7.53;2.10;;;;;;;;;;5084203;28;20035;-58
2022/05/27 12:48:41;;;;;;;12.60;2.50;;;;;;;;;;5083679;28;20020;-60
2022/05/27 12:51:27;;;;;;;10.98;2.28;;;;;;;;;;5081144;28;20176;-59
2022/05/27 12:53:57;;;;;;;10.02;2.85;;;;;;;;;;5091250;28;20061;-60
2022/05/27 13:02:23;;;;;;;8.93;2.70;;;;;;;;;;5090866;28;20050;-59
2022/05/27 13:05:00;;;;;;;13.68;4.75;;;;;;;;;;5085050;28;20019;-59
2022/05/27 13:07:29;;;;;;;14.15;4.75;;;;;;;;;;5087810;28;20020;-59
2022/05/27 13:09:56;;;;;;;10.02;2.30;;;;;;;;;;5085449;28;20036;-59
2022/05/27 13:12:40;;;;;;;10.32;2.50;;;;;;;;;;5085121;28;20024;-58
2022/05/27 13:15:09;;;;;;;11.07;2.65;;;;;;;;;;5073995;28;20085;-58
2022/05/27 13:17:38;;;;;;;7.80;2.30;;;;;;;;;;5093281;28;20028;-60
2022/05/27 13:20:17;;;;;;;11.38;2.40;;;;;;;;;;5087531;28;20130;-60
2022/05/27 13:22:52;;;;;;;11.52;2.63;;;;;;;;;;5093981;28;20103;-59
2022/05/27 13:25:37;;;;;;;6.63;1.83;;;;;;;;;;5085768;28;20035;-59
2022/05/27 13:28:24;;;;;;;8.75;2.42;;;;;;;;;;5086594;28;20040;-60
2022/05/27 13:30:50;;;;;;;13.25;3.25;;;;;;;;;;5081082;28;20076;-59
2022/05/27 13:33:19;;;;;;;7.28;2.38;;;;;;;;;;5087440;28;20013;-60
2022/05/27 13:35:47;;;;;;;8.93;2.17;;;;;;;;;;5086185;28;20023;-56
2022/05/27 13:38:16;;;;;;;9.25;2.33;;;;;;;;;;5077147;28;20028;-58
2022/05/27 13:40:43;;;;;;;9.73;2.10;;;;;;;;;;5080444;28;20547;-59
2022/05/27 13:43:18;;;;;;;9.25;2.33;;;;;;;;;;5085213;28;20055;-60
2022/05/27 13:45:50;;;;;;;11.98;2.40;;;;;;;;;;5081001;28;20102;-58
2022/05/27 13:48:20;;;;;;;9.93;2.30;;;;;;;;;;5084207;28;20625;-59
2022/05/27 13:50:47;;;;;;;9.95;2.20;;;;;;;;;;5090296;28;20294;-60
2022/05/27 13:53:16;;;;;;;14.82;2.45;;;;;;;;;;5080038;28;20072;-60
2022/05/27 13:55:42;;;;;;;8.02;2.25;;;;;;;;;;5083934;28;20044;-60
2022/05/27 13:58:08;;;;;;;9.50;2.33;;;;;;;;;;5087647;28;20030;-59
2022/05/27 14:00:38;;;;;;;14.30;2.28;;;;;;;;;;5087768;28;20037;-58
2022/05/27 14:03:04;;;;;;;9.18;2.20;;;;;;;;;;5079350;28;20096;-60
2022/05/27 14:05:31;;;;;;;11.30;2.08;;;;;;;;;;5088734;28;20031;-59
2022/05/27 14:08:00;;;;;;;9.23;2.22;;;;;;;;;;5084842;28;20064;-59
2022/05/27 14:10:28;;;;;;;10.82;1.98;;;;;;;;;;5088517;28;20040;-59
2022/05/27 14:12:55;;;;;;;9.35;2.42;;;;;;;;;;5080192;28;20032;-58
2022/05/27 14:15:28;;;;;;;9.85;2.30;;;;;;;;;;5070072;28;20039;-59
2022/05/27 14:17:54;;;;;;;7.83;2.03;;;;;;;;;;5073384;28;20044;-58
2022/05/27 14:20:28;;;;;;;10.63;2.13;;;;;;;;;;5079042;28;20044;-60
2022/05/27 14:23:01;;;;;;;7.43;2.40;;;;;;;;;;5074483;28;20098;-59
2022/05/27 14:25:32;;;;;;;10.60;2.05;;;;;;;;;;5075742;28;20028;-57
2022/05/27 14:28:00;;;;;;;7.97;2.58;;;;;;;;;;5077302;28;20662;-59
2022/05/27 14:30:32;;;;;;;7.03;1.70;;;;;;;;;;5077534;28;20093;-58
2022/05/27 14:32:58;;;;;;;8.95;2.03;;;;;;;;;;5083071;28;20073;-58
2022/05/27 14:35:29;;;;;;;6.72;1.92;;;;;;;;;;5084068;27;20499;-57
2022/05/27 14:37:58;;;;;;;10.20;2.20;;;;;;;;;;5083789;28;20032;-58
2022/05/27 14:40:33;;;;;;;10.35;2.25;;;;;;;;;;5088661;28;20055;-59
2022/05/27 14:43:00;;;;;;;9.13;2.40;;;;;;;;;;5087270;28;20024;-59
2022/05/27 14:45:53;;;;;;;6.50;1.83;;;;;;;;;;5090234;28;20668;-59
2022/05/27 14:48:31;;;;;;;8.27;2.85;;;;;;;;;;5090359;28;20120;-59
2022/05/27 14:50:57;;;;;;;10.05;2.63;;;;;;;;;;5082177;28;20500;-57
2022/05/27 14:53:26;;;;;;;11.70;2.60;;;;;;;;;;5091679;28;20482;-59
2022/05/27 14:55:57;;;;;;;14.05;2.67;;;;;;;;;;5087538;28;20031;-58
2022/05/27 14:58:32;;;;;;;16.75;2.80;;;;;;;;;;5084021;28;20036;-58
2022/05/27 15:00:58;;;;;;;14.35;2.95;;;;;;;;;;5092382;28;20547;-58
2022/05/27 15:03:29;;;;;;;7.57;1.95;;;;;;;;;;5095520;28;20031;-59
2022/05/27 15:06:06;;;;;;;17.13;3.05;;;;;;;;;;5089325;28;20119;-59
2022/05/27 15:08:33;;;;;;;13.43;2.90;;;;;;;;;;5084193;28;20623;-59
2022/05/27 15:11:05;;;;;;;9.90;2.60;;;;;;;;;;5094040;28;20035;-59
2022/05/27 15:13:42;;;;;;;15.63;3.17;;;;;;;;;;5082515;28;20120;-59
2022/05/27 15:16:10;;;;;;;11.15;2.85;;;;;;;;;;5087200;28;20391;-58
2022/05/27 15:18:43;;;;;;;12.63;2.67;;;;;;;;;;5084406;28;20032;-59
2022/05/27 15:21:11;;;;;;;10.40;2.65;;;;;;;;;;5079864;28;20123;-59
2022/05/27 15:23:49;;;;;;;11.07;2.97;;;;;;;;;;5080937;28;20163;-57
2022/05/27 15:34:43;;;;;;;10.85;2.17;;;;;;;;;;5089328;28;20157;-58
2022/05/27 15:37:09;;;;;;;8.48;2.45;;;;;;;;;;5081519;28;20035;-58
2022/05/27 15:39:35;;;;;;;10.15;2.25;;;;;;;;;;5084610;28;20032;-58